sensor_id;sensor_type;location;lat;lon;timestamp;P1;durP1;ratioP1;P2;durP2;ratioP2
21820;SDS011;11073;48.586;12.066;2023-02-11T00:01:40;54.37;;;30.73;;
21820;SDS011;11073;48.586;12.066;2023-02-11T00:04:08;51.07;;;31.03;;
21820;SDS011;11073;48.586;12.066;2023-02-11T00:06:37;56.37;;;31.10;;
21820;SDS011;11073;48.586;12.066;2023-02-11T00:09:06;53.97;;;29.27;;
21820;SDS011;11073;48.586;12.066;2023-02-11T00:11:36;51.73;;;30.67;;
21820;SDS011;11073;48.586;12.066;2023-02-11T00:14:05;53.63;;;29.77;;
21820;SDS011;11073;48.586;12.066;2023-02-11T00:16:35;57.63;;;31.83;;
21820;SDS011;11073;48.586;12.066;2023-02-11T00:19:03;54.13;;;29.97;;
21820;SDS011;11073;48.586;12.066;2023-02-11T00:21:32;51.20;;;30.07;;
21820;SDS011;11073;48.586;12.066;2023-02-11T00:24:01;56.67;;;31.20;;
21820;SDS011;11073;48.586;12.066;2023-02-11T00:26:31;54.00;;;31.77;;
21820;SDS011;11073;48.586;12.066;2023-02-11T00:29:02;57.63;;;31.30;;
21820;SDS011;11073;48.586;12.066;2023-02-11T00:31:32;53.63;;;30.30;;
21820;SDS011;11073;48.586;12.066;2023-02-11T00:34:04;54.73;;;30.43;;
21820;SDS011;11073;48.586;12.066;2023-02-11T00:36:32;48.83;;;29.30;;
21820;SDS011;11073;48.586;12.066;2023-02-11T00:39:01;53.20;;;31.17;;
21820;SDS011;11073;48.586;12.066;2023-02-11T00:41:30;58.07;;;31.57;;
21820;SDS011;11073;48.586;12.066;2023-02-11T00:43:59;57.63;;;32.13;;
21820;SDS011;11073;48.586;12.066;2023-02-11T00:46:29;54.20;;;30.07;;
21820;SDS011;11073;48.586;12.066;2023-02-11T00:48:58;57.43;;;31.00;;
21820;SDS011;11073;48.586;12.066;2023-02-11T00:51:27;58.77;;;31.70;;
21820;SDS011;11073;48.586;12.066;2023-02-11T00:53:56;56.53;;;30.87;;
21820;SDS011;11073;48.586;12.066;2023-02-11T00:56:25;57.83;;;31.80;;
21820;SDS011;11073;48.586;12.066;2023-02-11T00:58:55;53.53;;;30.03;;
21820;SDS011;11073;48.586;12.066;2023-02-11T01:01:24;56.80;;;31.53;;
21820;SDS011;11073;48.586;12.066;2023-02-11T01:03:54;58.13;;;32.77;;
21820;SDS011;11073;48.586;12.066;2023-02-11T01:06:23;60.03;;;32.73;;
21820;SDS011;11073;48.586;12.066;2023-02-11T01:08:52;58.53;;;32.43;;
21820;SDS011;11073;48.586;12.066;2023-02-11T01:11:20;54.17;;;30.63;;
21820;SDS011;11073;48.586;12.066;2023-02-11T01:13:49;53.73;;;30.43;;
21820;SDS011;11073;48.586;12.066;2023-02-11T01:16:18;58.80;;;32.20;;
21820;SDS011;11073;48.586;12.066;2023-02-11T01:18:48;53.03;;;30.37;;
21820;SDS011;11073;48.586;12.066;2023-02-11T01:21:18;59.20;;;31.33;;
21820;SDS011;11073;48.586;12.066;2023-02-11T01:23:49;55.73;;;32.17;;
21820;SDS011;11073;48.586;12.066;2023-02-11T01:26:17;61.67;;;32.60;;
21820;SDS011;11073;48.586;12.066;2023-02-11T01:28:46;62.40;;;32.97;;
21820;SDS011;11073;48.586;12.066;2023-02-11T01:31:16;53.13;;;31.57;;
21820;SDS011;11073;48.586;12.066;2023-02-11T01:33:45;56.93;;;31.63;;
21820;SDS011;11073;48.586;12.066;2023-02-11T01:36:13;60.87;;;32.30;;
21820;SDS011;11073;48.586;12.066;2023-02-11T01:38:43;60.47;;;32.33;;
21820;SDS011;11073;48.586;12.066;2023-02-11T01:41:13;57.40;;;31.27;;
21820;SDS011;11073;48.586;12.066;2023-02-11T01:43:43;57.97;;;31.17;;
21820;SDS011;11073;48.586;12.066;2023-02-11T01:46:16;57.67;;;32.57;;
21820;SDS011;11073;48.586;12.066;2023-02-11T01:48:53;59.50;;;32.07;;
21820;SDS011;11073;48.586;12.066;2023-02-11T01:51:25;55.47;;;31.73;;
21820;SDS011;11073;48.586;12.066;2023-02-11T01:54:03;59.70;;;32.33;;
21820;SDS011;11073;48.586;12.066;2023-02-11T01:56:52;62.87;;;33.67;;
21820;SDS011;11073;48.586;12.066;2023-02-11T01:59:42;61.20;;;32.00;;
21820;SDS011;11073;48.586;12.066;2023-02-11T02:02:16;55.23;;;30.67;;
21820;SDS011;11073;48.586;12.066;2023-02-11T02:04:51;57.00;;;31.07;;
21820;SDS011;11073;48.586;12.066;2023-02-11T02:07:24;57.83;;;32.07;;
21820;SDS011;11073;48.586;12.066;2023-02-11T02:10:02;59.83;;;32.33;;
21820;SDS011;11073;48.586;12.066;2023-02-11T02:12:35;61.23;;;31.97;;
21820;SDS011;11073;48.586;12.066;2023-02-11T02:15:17;55.63;;;30.17;;
21820;SDS011;11073;48.586;12.066;2023-02-11T02:17:51;59.50;;;30.90;;
21820;SDS011;11073;48.586;12.066;2023-02-11T02:20:37;55.83;;;32.33;;
21820;SDS011;11073;48.586;12.066;2023-02-11T02:23:22;59.83;;;33.17;;
21820;SDS011;11073;48.586;12.066;2023-02-11T02:26:22;60.57;;;33.10;;
21820;SDS011;11073;48.586;12.066;2023-02-11T02:29:28;56.07;;;30.90;;
21820;SDS011;11073;48.586;12.066;2023-02-11T02:32:16;57.20;;;30.93;;
21820;SDS011;11073;48.586;12.066;2023-02-11T02:34:52;56.73;;;30.63;;
21820;SDS011;11073;48.586;12.066;2023-02-11T02:37:29;60.90;;;34.80;;
21820;SDS011;11073;48.586;12.066;2023-02-11T02:40:02;56.83;;;30.50;;
21820;SDS011;11073;48.586;12.066;2023-02-11T02:42:37;54.07;;;30.40;;
21820;SDS011;11073;48.586;12.066;2023-02-11T02:45:08;55.03;;;30.83;;
21820;SDS011;11073;48.586;12.066;2023-02-11T02:47:40;56.93;;;30.40;;
21820;SDS011;11073;48.586;12.066;2023-02-11T02:50:09;65.33;;;36.03;;
21820;SDS011;11073;48.586;12.066;2023-02-11T02:52:45;57.13;;;31.33;;
21820;SDS011;11073;48.586;12.066;2023-02-11T02:55:33;54.83;;;30.07;;
21820;SDS011;11073;48.586;12.066;2023-02-11T02:58:21;62.10;;;33.10;;
21820;SDS011;11073;48.586;12.066;2023-02-11T03:00:59;63.57;;;34.40;;
21820;SDS011;11073;48.586;12.066;2023-02-11T03:03:39;61.23;;;34.10;;
21820;SDS011;11073;48.586;12.066;2023-02-11T03:06:16;60.43;;;32.60;;
21820;SDS011;11073;48.586;12.066;2023-02-11T03:08:52;65.50;;;34.13;;
21820;SDS011;11073;48.586;12.066;2023-02-11T03:11:25;66.60;;;34.23;;
21820;SDS011;11073;48.586;12.066;2023-02-11T03:13:56;59.80;;;32.10;;
21820;SDS011;11073;48.586;12.066;2023-02-11T03:16:29;59.87;;;33.20;;
21820;SDS011;11073;48.586;12.066;2023-02-11T03:19:04;61.10;;;34.30;;
21820;SDS011;11073;48.586;12.066;2023-02-11T03:21:38;61.87;;;33.77;;
21820;SDS011;11073;48.586;12.066;2023-02-11T03:24:12;61.07;;;33.43;;
21820;SDS011;11073;48.586;12.066;2023-02-11T03:26:45;57.97;;;31.17;;
21820;SDS011;11073;48.586;12.066;2023-02-11T03:29:18;59.27;;;32.50;;
21820;SDS011;11073;48.586;12.066;2023-02-11T03:32:00;52.97;;;30.13;;
21820;SDS011;11073;48.586;12.066;2023-02-11T03:34:37;57.03;;;32.80;;
21820;SDS011;11073;48.586;12.066;2023-02-11T03:37:12;61.87;;;33.30;;
21820;SDS011;11073;48.586;12.066;2023-02-11T03:39:45;60.40;;;33.40;;
21820;SDS011;11073;48.586;12.066;2023-02-11T03:42:19;56.73;;;31.80;;
21820;SDS011;11073;48.586;12.066;2023-02-11T03:44:52;60.90;;;31.33;;
21820;SDS011;11073;48.586;12.066;2023-02-11T03:47:27;60.20;;;33.37;;
21820;SDS011;11073;48.586;12.066;2023-02-11T03:50:02;65.10;;;34.83;;
21820;SDS011;11073;48.586;12.066;2023-02-11T03:52:33;63.73;;;32.60;;
21820;SDS011;11073;48.586;12.066;2023-02-11T03:55:05;62.67;;;33.13;;
21820;SDS011;11073;48.586;12.066;2023-02-11T03:57:38;53.53;;;30.50;;
21820;SDS011;11073;48.586;12.066;2023-02-11T04:00:07;64.87;;;34.33;;
21820;SDS011;11073;48.586;12.066;2023-02-11T04:02:37;62.03;;;33.17;;
21820;SDS011;11073;48.586;12.066;2023-02-11T04:05:09;58.57;;;32.23;;
21820;SDS011;11073;48.586;12.066;2023-02-11T04:07:40;57.47;;;32.37;;
21820;SDS011;11073;48.586;12.066;2023-02-11T04:10:10;59.87;;;31.77;;
21820;SDS011;11073;48.586;12.066;2023-02-11T04:12:38;57.47;;;32.93;;
21820;SDS011;11073;48.586;12.066;2023-02-11T04:15:07;54.87;;;29.63;;
21820;SDS011;11073;48.586;12.066;2023-02-11T04:17:36;60.17;;;33.30;;
21820;SDS011;11073;48.586;12.066;2023-02-11T04:20:05;60.00;;;33.43;;
21820;SDS011;11073;48.586;12.066;2023-02-11T04:22:36;59.63;;;32.80;;
21820;SDS011;11073;48.586;12.066;2023-02-11T04:25:06;59.60;;;32.53;;
21820;SDS011;11073;48.586;12.066;2023-02-11T04:27:35;55.43;;;30.93;;
21820;SDS011;11073;48.586;12.066;2023-02-11T04:30:05;59.43;;;32.70;;
21820;SDS011;11073;48.586;12.066;2023-02-11T04:32:34;62.30;;;32.93;;
21820;SDS011;11073;48.586;12.066;2023-02-11T04:35:03;61.43;;;33.67;;
21820;SDS011;11073;48.586;12.066;2023-02-11T04:37:33;61.70;;;34.27;;
21820;SDS011;11073;48.586;12.066;2023-02-11T04:40:03;62.07;;;35.17;;
21820;SDS011;11073;48.586;12.066;2023-02-11T04:42:32;61.57;;;34.40;;
21820;SDS011;11073;48.586;12.066;2023-02-11T04:45:01;62.50;;;33.13;;
21820;SDS011;11073;48.586;12.066;2023-02-11T04:47:30;59.67;;;34.23;;
21820;SDS011;11073;48.586;12.066;2023-02-11T04:49:59;62.60;;;34.20;;
21820;SDS011;11073;48.586;12.066;2023-02-11T04:52:27;64.17;;;35.27;;
21820;SDS011;11073;48.586;12.066;2023-02-11T04:54:56;66.37;;;36.53;;
21820;SDS011;11073;48.586;12.066;2023-02-11T04:57:26;60.37;;;34.87;;
21820;SDS011;11073;48.586;12.066;2023-02-11T04:59:55;62.00;;;33.67;;
21820;SDS011;11073;48.586;12.066;2023-02-11T05:02:24;65.33;;;35.40;;
21820;SDS011;11073;48.586;12.066;2023-02-11T05:04:53;61.43;;;34.37;;
21820;SDS011;11073;48.586;12.066;2023-02-11T05:07:21;64.07;;;34.63;;
21820;SDS011;11073;48.586;12.066;2023-02-11T05:09:50;55.30;;;31.83;;
21820;SDS011;11073;48.586;12.066;2023-02-11T05:12:19;61.97;;;34.17;;
21820;SDS011;11073;48.586;12.066;2023-02-11T05:14:49;57.70;;;33.90;;
21820;SDS011;11073;48.586;12.066;2023-02-11T05:17:18;59.10;;;32.23;;
21820;SDS011;11073;48.586;12.066;2023-02-11T05:19:47;60.83;;;31.37;;
21820;SDS011;11073;48.586;12.066;2023-02-11T05:22:15;54.80;;;31.77;;
21820;SDS011;11073;48.586;12.066;2023-02-11T05:24:44;58.50;;;32.47;;
21820;SDS011;11073;48.586;12.066;2023-02-11T05:27:13;58.63;;;31.33;;
21820;SDS011;11073;48.586;12.066;2023-02-11T05:29:41;61.97;;;34.07;;
21820;SDS011;11073;48.586;12.066;2023-02-11T05:32:12;61.73;;;32.97;;
21820;SDS011;11073;48.586;12.066;2023-02-11T05:34:41;59.90;;;32.93;;
21820;SDS011;11073;48.586;12.066;2023-02-11T05:37:10;53.33;;;31.17;;
21820;SDS011;11073;48.586;12.066;2023-02-11T05:39:38;56.97;;;31.47;;
21820;SDS011;11073;48.586;12.066;2023-02-11T05:42:08;54.23;;;31.57;;
21820;SDS011;11073;48.586;12.066;2023-02-11T05:44:37;55.10;;;31.70;;
21820;SDS011;11073;48.586;12.066;2023-02-11T05:47:06;57.70;;;32.50;;
21820;SDS011;11073;48.586;12.066;2023-02-11T05:49:36;58.10;;;32.83;;
21820;SDS011;11073;48.586;12.066;2023-02-11T05:52:05;57.37;;;32.50;;
21820;SDS011;11073;48.586;12.066;2023-02-11T05:54:34;55.50;;;32.17;;
21820;SDS011;11073;48.586;12.066;2023-02-11T05:57:03;57.07;;;32.53;;
21820;SDS011;11073;48.586;12.066;2023-02-11T05:59:32;57.00;;;31.50;;
21820;SDS011;11073;48.586;12.066;2023-02-11T06:02:00;57.33;;;32.13;;
21820;SDS011;11073;48.586;12.066;2023-02-11T06:04:29;55.27;;;30.50;;
21820;SDS011;11073;48.586;12.066;2023-02-11T06:06:59;52.73;;;29.93;;
21820;SDS011;11073;48.586;12.066;2023-02-11T06:09:28;51.50;;;29.90;;
21820;SDS011;11073;48.586;12.066;2023-02-11T06:11:56;53.23;;;31.50;;
21820;SDS011;11073;48.586;12.066;2023-02-11T06:14:25;57.67;;;32.77;;
21820;SDS011;11073;48.586;12.066;2023-02-11T06:16:53;63.07;;;34.37;;
21820;SDS011;11073;48.586;12.066;2023-02-11T06:19:22;58.20;;;33.53;;
21820;SDS011;11073;48.586;12.066;2023-02-11T06:21:51;55.17;;;31.60;;
21820;SDS011;11073;48.586;12.066;2023-02-11T06:24:21;55.50;;;31.43;;
21820;SDS011;11073;48.586;12.066;2023-02-11T06:27:11;55.63;;;30.50;;
21820;SDS011;11073;48.586;12.066;2023-02-11T06:29:40;52.30;;;31.50;;
21820;SDS011;11073;48.586;12.066;2023-02-11T06:32:09;54.53;;;31.77;;
21820;SDS011;11073;48.586;12.066;2023-02-11T06:34:59;54.17;;;31.37;;
21820;SDS011;11073;48.586;12.066;2023-02-11T06:37:27;57.47;;;32.50;;
21820;SDS011;11073;48.586;12.066;2023-02-11T06:39:58;58.50;;;33.23;;
21820;SDS011;11073;48.586;12.066;2023-02-11T06:42:27;58.63;;;31.90;;
21820;SDS011;11073;48.586;12.066;2023-02-11T06:44:55;55.50;;;32.63;;
21820;SDS011;11073;48.586;12.066;2023-02-11T06:47:24;60.80;;;32.90;;
21820;SDS011;11073;48.586;12.066;2023-02-11T06:49:52;54.50;;;31.40;;
21820;SDS011;11073;48.586;12.066;2023-02-11T06:52:20;54.97;;;31.90;;
21820;SDS011;11073;48.586;12.066;2023-02-11T06:54:49;55.23;;;32.20;;
21820;SDS011;11073;48.586;12.066;2023-02-11T06:57:19;53.63;;;30.97;;
21820;SDS011;11073;48.586;12.066;2023-02-11T06:59:47;51.97;;;30.90;;
21820;SDS011;11073;48.586;12.066;2023-02-11T07:02:16;58.57;;;33.33;;
21820;SDS011;11073;48.586;12.066;2023-02-11T07:04:47;55.53;;;32.00;;
21820;SDS011;11073;48.586;12.066;2023-02-11T07:07:15;53.77;;;31.17;;
21820;SDS011;11073;48.586;12.066;2023-02-11T07:09:44;57.43;;;32.83;;
21820;SDS011;11073;48.586;12.066;2023-02-11T07:12:13;56.43;;;32.37;;
21820;SDS011;11073;48.586;12.066;2023-02-11T07:14:42;56.10;;;31.17;;
21820;SDS011;11073;48.586;12.066;2023-02-11T07:17:11;50.13;;;29.27;;
21820;SDS011;11073;48.586;12.066;2023-02-11T07:19:40;55.13;;;30.50;;
21820;SDS011;11073;48.586;12.066;2023-02-11T07:22:08;51.57;;;30.20;;
21820;SDS011;11073;48.586;12.066;2023-02-11T07:24:36;54.13;;;29.33;;
21820;SDS011;11073;48.586;12.066;2023-02-11T07:27:05;53.10;;;32.80;;
21820;SDS011;11073;48.586;12.066;2023-02-11T07:29:33;59.27;;;33.93;;
21820;SDS011;11073;48.586;12.066;2023-02-11T07:32:04;59.10;;;32.43;;
21820;SDS011;11073;48.586;12.066;2023-02-11T07:34:33;51.63;;;29.73;;
21820;SDS011;11073;48.586;12.066;2023-02-11T07:37:02;52.27;;;30.27;;
21820;SDS011;11073;48.586;12.066;2023-02-11T07:39:30;54.93;;;29.97;;
21820;SDS011;11073;48.586;12.066;2023-02-11T07:41:58;52.20;;;29.60;;
21820;SDS011;11073;48.586;12.066;2023-02-11T07:44:27;58.03;;;31.17;;
21820;SDS011;11073;48.586;12.066;2023-02-11T07:46:56;53.13;;;30.73;;
21820;SDS011;11073;48.586;12.066;2023-02-11T07:49:25;52.93;;;30.97;;
21820;SDS011;11073;48.586;12.066;2023-02-11T07:51:54;51.10;;;30.43;;
21820;SDS011;11073;48.586;12.066;2023-02-11T07:54:23;56.83;;;31.73;;
21820;SDS011;11073;48.586;12.066;2023-02-11T07:56:51;53.43;;;30.67;;
21820;SDS011;11073;48.586;12.066;2023-02-11T07:59:20;50.70;;;29.00;;
21820;SDS011;11073;48.586;12.066;2023-02-11T08:01:50;44.50;;;26.60;;
21820;SDS011;11073;48.586;12.066;2023-02-11T08:04:19;45.77;;;27.43;;
21820;SDS011;11073;48.586;12.066;2023-02-11T08:06:49;45.27;;;26.77;;
21820;SDS011;11073;48.586;12.066;2023-02-11T08:09:19;50.37;;;27.33;;
21820;SDS011;11073;48.586;12.066;2023-02-11T08:11:47;49.07;;;27.40;;
21820;SDS011;11073;48.586;12.066;2023-02-11T08:14:16;44.07;;;25.90;;
21820;SDS011;11073;48.586;12.066;2023-02-11T08:16:46;41.40;;;25.90;;
21820;SDS011;11073;48.586;12.066;2023-02-11T08:19:15;45.57;;;25.97;;
21820;SDS011;11073;48.586;12.066;2023-02-11T08:21:44;44.17;;;26.47;;
21820;SDS011;11073;48.586;12.066;2023-02-11T08:24:14;35.50;;;23.70;;
21820;SDS011;11073;48.586;12.066;2023-02-11T08:26:43;49.70;;;28.77;;
21820;SDS011;11073;48.586;12.066;2023-02-11T08:29:12;47.53;;;27.13;;
21820;SDS011;11073;48.586;12.066;2023-02-11T08:31:43;41.70;;;26.10;;
21820;SDS011;11073;48.586;12.066;2023-02-11T08:34:14;43.83;;;26.27;;
21820;SDS011;11073;48.586;12.066;2023-02-11T08:36:45;42.00;;;25.00;;
21820;SDS011;11073;48.586;12.066;2023-02-11T08:39:17;43.63;;;25.77;;
21820;SDS011;11073;48.586;12.066;2023-02-11T08:41:47;41.77;;;23.60;;
21820;SDS011;11073;48.586;12.066;2023-02-11T08:44:18;40.27;;;23.70;;
21820;SDS011;11073;48.586;12.066;2023-02-11T08:46:47;38.07;;;24.50;;
21820;SDS011;11073;48.586;12.066;2023-02-11T08:49:16;43.20;;;24.77;;
21820;SDS011;11073;48.586;12.066;2023-02-11T08:51:44;43.27;;;25.13;;
21820;SDS011;11073;48.586;12.066;2023-02-11T08:54:13;41.93;;;24.07;;
21820;SDS011;11073;48.586;12.066;2023-02-11T08:56:44;38.17;;;23.60;;
21820;SDS011;11073;48.586;12.066;2023-02-11T08:59:13;40.40;;;24.33;;
21820;SDS011;11073;48.586;12.066;2023-02-11T09:01:43;40.53;;;23.73;;
21820;SDS011;11073;48.586;12.066;2023-02-11T09:04:13;38.77;;;23.97;;
21820;SDS011;11073;48.586;12.066;2023-02-11T09:06:42;42.43;;;24.63;;
21820;SDS011;11073;48.586;12.066;2023-02-11T09:09:10;43.83;;;24.67;;
21820;SDS011;11073;48.586;12.066;2023-02-11T09:11:41;42.13;;;23.83;;
21820;SDS011;11073;48.586;12.066;2023-02-11T09:14:16;40.07;;;23.90;;
21820;SDS011;11073;48.586;12.066;2023-02-11T09:16:46;43.17;;;26.00;;
21820;SDS011;11073;48.586;12.066;2023-02-11T09:19:15;41.83;;;24.97;;
21820;SDS011;11073;48.586;12.066;2023-02-11T09:21:44;38.07;;;24.47;;
21820;SDS011;11073;48.586;12.066;2023-02-11T09:24:13;40.63;;;24.33;;
21820;SDS011;11073;48.586;12.066;2023-02-11T09:26:41;41.53;;;25.33;;
21820;SDS011;11073;48.586;12.066;2023-02-11T09:29:10;38.47;;;23.33;;
21820;SDS011;11073;48.586;12.066;2023-02-11T09:31:40;40.80;;;23.23;;
21820;SDS011;11073;48.586;12.066;2023-02-11T09:34:09;40.70;;;24.13;;
21820;SDS011;11073;48.586;12.066;2023-02-11T09:36:38;41.27;;;22.83;;
21820;SDS011;11073;48.586;12.066;2023-02-11T09:39:08;37.73;;;22.47;;
21820;SDS011;11073;48.586;12.066;2023-02-11T09:41:41;38.20;;;22.40;;
21820;SDS011;11073;48.586;12.066;2023-02-11T09:44:30;40.13;;;22.73;;
21820;SDS011;11073;48.586;12.066;2023-02-11T09:47:03;40.57;;;23.30;;
21820;SDS011;11073;48.586;12.066;2023-02-11T09:49:35;52.10;;;28.50;;
21820;SDS011;11073;48.586;12.066;2023-02-11T09:52:10;43.03;;;25.70;;
21820;SDS011;11073;48.586;12.066;2023-02-11T09:54:48;44.90;;;26.07;;
21820;SDS011;11073;48.586;12.066;2023-02-11T09:57:22;40.90;;;23.63;;
21820;SDS011;11073;48.586;12.066;2023-02-11T09:59:55;49.60;;;27.73;;
21820;SDS011;11073;48.586;12.066;2023-02-11T10:02:28;45.13;;;24.30;;
21820;SDS011;11073;48.586;12.066;2023-02-11T10:05:09;39.00;;;22.67;;
21820;SDS011;11073;48.586;12.066;2023-02-11T10:07:50;37.33;;;22.40;;
21820;SDS011;11073;48.586;12.066;2023-02-11T10:10:34;34.03;;;20.93;;
21820;SDS011;11073;48.586;12.066;2023-02-11T10:13:14;33.17;;;20.93;;
21820;SDS011;11073;48.586;12.066;2023-02-11T10:16:02;33.07;;;21.40;;
21820;SDS011;11073;48.586;12.066;2023-02-11T10:18:42;31.57;;;18.93;;
21820;SDS011;11073;48.586;12.066;2023-02-11T10:21:23;28.60;;;19.07;;
21820;SDS011;11073;48.586;12.066;2023-02-11T10:24:00;27.07;;;17.97;;
21820;SDS011;11073;48.586;12.066;2023-02-11T10:26:32;29.80;;;17.70;;
21820;SDS011;11073;48.586;12.066;2023-02-11T10:29:04;28.97;;;16.87;;
21820;SDS011;11073;48.586;12.066;2023-02-11T10:31:44;27.93;;;16.73;;
21820;SDS011;11073;48.586;12.066;2023-02-11T10:34:15;25.53;;;15.77;;
21820;SDS011;11073;48.586;12.066;2023-02-11T10:36:44;26.33;;;16.63;;
21820;SDS011;11073;48.586;12.066;2023-02-11T10:39:13;27.23;;;16.50;;
21820;SDS011;11073;48.586;12.066;2023-02-11T10:41:45;30.67;;;16.30;;
21820;SDS011;11073;48.586;12.066;2023-02-11T10:44:18;25.07;;;15.43;;
21820;SDS011;11073;48.586;12.066;2023-02-11T10:46:51;24.10;;;15.17;;
21820;SDS011;11073;48.586;12.066;2023-02-11T10:49:39;26.00;;;15.53;;
21820;SDS011;11073;48.586;12.066;2023-02-11T10:52:12;21.50;;;12.93;;
21820;SDS011;11073;48.586;12.066;2023-02-11T10:54:53;24.13;;;15.43;;
21820;SDS011;11073;48.586;12.066;2023-02-11T10:57:25;21.63;;;15.00;;
21820;SDS011;11073;48.586;12.066;2023-02-11T10:59:58;22.70;;;15.27;;
21820;SDS011;11073;48.586;12.066;2023-02-11T11:02:30;24.37;;;14.90;;
21820;SDS011;11073;48.586;12.066;2023-02-11T11:05:13;25.00;;;15.83;;
21820;SDS011;11073;48.586;12.066;2023-02-11T11:07:50;23.30;;;14.37;;
21820;SDS011;11073;48.586;12.066;2023-02-11T11:10:24;24.77;;;15.90;;
21820;SDS011;11073;48.586;12.066;2023-02-11T11:12:56;22.50;;;14.63;;
21820;SDS011;11073;48.586;12.066;2023-02-11T11:15:25;23.80;;;15.30;;
21820;SDS011;11073;48.586;12.066;2023-02-11T11:18:08;21.40;;;14.10;;
21820;SDS011;11073;48.586;12.066;2023-02-11T11:20:55;21.40;;;13.57;;
21820;SDS011;11073;48.586;12.066;2023-02-11T11:23:26;23.57;;;15.27;;
21820;SDS011;11073;48.586;12.066;2023-02-11T11:25:58;25.23;;;15.17;;
21820;SDS011;11073;48.586;12.066;2023-02-11T11:28:30;23.43;;;14.97;;
21820;SDS011;11073;48.586;12.066;2023-02-11T11:31:05;25.90;;;15.27;;
21820;SDS011;11073;48.586;12.066;2023-02-11T11:33:41;25.77;;;14.27;;
21820;SDS011;11073;48.586;12.066;2023-02-11T11:36:15;26.63;;;14.57;;
21820;SDS011;11073;48.586;12.066;2023-02-11T11:38:48;20.37;;;13.63;;
21820;SDS011;11073;48.586;12.066;2023-02-11T11:41:23;25.07;;;14.47;;
21820;SDS011;11073;48.586;12.066;2023-02-11T11:43:54;22.60;;;13.10;;
21820;SDS011;11073;48.586;12.066;2023-02-11T11:46:25;23.40;;;13.70;;
21820;SDS011;11073;48.586;12.066;2023-02-11T11:49:06;28.40;;;15.77;;
21820;SDS011;11073;48.586;12.066;2023-02-11T11:51:42;19.30;;;12.93;;
21820;SDS011;11073;48.586;12.066;2023-02-11T11:54:16;29.30;;;16.13;;
21820;SDS011;11073;48.586;12.066;2023-02-11T11:56:49;24.37;;;15.00;;
21820;SDS011;11073;48.586;12.066;2023-02-11T11:59:23;29.57;;;17.27;;
21820;SDS011;11073;48.586;12.066;2023-02-11T12:01:57;27.10;;;16.07;;
21820;SDS011;11073;48.586;12.066;2023-02-11T12:04:45;29.33;;;17.70;;
21820;SDS011;11073;48.586;12.066;2023-02-11T12:07:29;28.00;;;16.40;;
21820;SDS011;11073;48.586;12.066;2023-02-11T12:10:16;28.30;;;15.70;;
21820;SDS011;11073;48.586;12.066;2023-02-11T12:12:57;31.00;;;18.30;;
21820;SDS011;11073;48.586;12.066;2023-02-11T12:15:38;27.93;;;17.03;;
21820;SDS011;11073;48.586;12.066;2023-02-11T12:18:16;32.83;;;20.93;;
21820;SDS011;11073;48.586;12.066;2023-02-11T12:21:03;27.17;;;16.87;;
21820;SDS011;11073;48.586;12.066;2023-02-11T12:23:47;39.63;;;24.57;;
21820;SDS011;11073;48.586;12.066;2023-02-11T12:26:27;33.37;;;19.30;;
21820;SDS011;11073;48.586;12.066;2023-02-11T12:29:05;23.67;;;15.13;;
21820;SDS011;11073;48.586;12.066;2023-02-11T12:31:48;26.60;;;16.63;;
21820;SDS011;11073;48.586;12.066;2023-02-11T12:34:30;28.13;;;18.60;;
21820;SDS011;11073;48.586;12.066;2023-02-11T12:37:13;36.83;;;20.97;;
21820;SDS011;11073;48.586;12.066;2023-02-11T12:39:53;21.80;;;13.63;;
21820;SDS011;11073;48.586;12.066;2023-02-11T12:42:32;27.73;;;15.53;;
21820;SDS011;11073;48.586;12.066;2023-02-11T12:45:36;20.07;;;12.97;;
21820;SDS011;11073;48.586;12.066;2023-02-11T12:48:17;25.97;;;14.23;;
21820;SDS011;11073;48.586;12.066;2023-02-11T12:51:04;20.73;;;13.17;;
21820;SDS011;11073;48.586;12.066;2023-02-11T12:53:44;20.50;;;13.40;;
21820;SDS011;11073;48.586;12.066;2023-02-11T12:56:25;19.00;;;11.97;;
21820;SDS011;11073;48.586;12.066;2023-02-11T12:58:59;17.87;;;11.10;;
21820;SDS011;11073;48.586;12.066;2023-02-11T13:01:33;18.63;;;11.60;;
21820;SDS011;11073;48.586;12.066;2023-02-11T13:04:07;18.10;;;12.60;;
21820;SDS011;11073;48.586;12.066;2023-02-11T13:06:43;18.87;;;12.77;;
21820;SDS011;11073;48.586;12.066;2023-02-11T13:09:17;21.17;;;12.83;;
21820;SDS011;11073;48.586;12.066;2023-02-11T13:11:52;20.83;;;13.40;;
21820;SDS011;11073;48.586;12.066;2023-02-11T13:14:26;16.77;;;11.70;;
21820;SDS011;11073;48.586;12.066;2023-02-11T13:16:58;19.80;;;12.80;;
21820;SDS011;11073;48.586;12.066;2023-02-11T13:19:28;17.10;;;11.13;;
21820;SDS011;11073;48.586;12.066;2023-02-11T13:22:02;19.20;;;12.37;;
21820;SDS011;11073;48.586;12.066;2023-02-11T13:24:37;19.10;;;13.53;;
21820;SDS011;11073;48.586;12.066;2023-02-11T13:27:19;17.73;;;11.83;;
21820;SDS011;11073;48.586;12.066;2023-02-11T13:30:20;19.37;;;12.57;;
21820;SDS011;11073;48.586;12.066;2023-02-11T13:33:01;17.87;;;12.50;;
21820;SDS011;11073;48.586;12.066;2023-02-11T13:35:33;19.50;;;12.87;;
21820;SDS011;11073;48.586;12.066;2023-02-11T13:38:03;16.97;;;12.73;;
21820;SDS011;11073;48.586;12.066;2023-02-11T13:40:34;20.27;;;12.73;;
21820;SDS011;11073;48.586;12.066;2023-02-11T13:43:18;21.17;;;12.73;;
21820;SDS011;11073;48.586;12.066;2023-02-11T13:45:49;27.63;;;20.43;;
21820;SDS011;11073;48.586;12.066;2023-02-11T13:48:21;25.47;;;18.87;;
21820;SDS011;11073;48.586;12.066;2023-02-11T13:50:52;19.53;;;12.93;;
21820;SDS011;11073;48.586;12.066;2023-02-11T13:53:23;19.60;;;13.80;;
21820;SDS011;11073;48.586;12.066;2023-02-11T13:56:03;20.57;;;13.30;;
21820;SDS011;11073;48.586;12.066;2023-02-11T13:58:37;19.53;;;13.63;;
21820;SDS011;11073;48.586;12.066;2023-02-11T14:01:27;20.80;;;13.73;;
21820;SDS011;11073;48.586;12.066;2023-02-11T14:04:19;21.20;;;13.90;;
21820;SDS011;11073;48.586;12.066;2023-02-11T14:07:23;20.53;;;13.83;;
21820;SDS011;11073;48.586;12.066;2023-02-11T14:13:21;18.77;;;12.67;;
21820;SDS011;11073;48.586;12.066;2023-02-11T14:16:06;20.97;;;13.30;;
21820;SDS011;11073;48.586;12.066;2023-02-11T14:18:36;21.40;;;16.83;;
21820;SDS011;11073;48.586;12.066;2023-02-11T14:21:21;23.13;;;14.40;;
21820;SDS011;11073;48.586;12.066;2023-02-11T14:23:52;20.60;;;13.10;;
21820;SDS011;11073;48.586;12.066;2023-02-11T14:26:24;22.73;;;13.20;;
21820;SDS011;11073;48.586;12.066;2023-02-11T14:29:02;18.83;;;12.33;;
21820;SDS011;11073;48.586;12.066;2023-02-11T14:31:39;18.47;;;13.20;;
21820;SDS011;11073;48.586;12.066;2023-02-11T14:34:22;16.67;;;11.90;;
21820;SDS011;11073;48.586;12.066;2023-02-11T14:37:09;18.07;;;12.13;;
21820;SDS011;11073;48.586;12.066;2023-02-11T14:39:49;19.47;;;12.73;;
21820;SDS011;11073;48.586;12.066;2023-02-11T14:42:30;26.50;;;15.00;;
21820;SDS011;11073;48.586;12.066;2023-02-11T14:45:02;18.63;;;11.90;;
21820;SDS011;11073;48.586;12.066;2023-02-11T14:47:35;19.63;;;12.67;;